Time;durP1;ratioP1;P1;durP2;ratioP2;P2;SDS_P1;SDS_P2;PMS_P1;PMS_P2;Temp;Humidity;BMP_temperature;BMP_pressure;BME280_temperature;BME280_humidity;BME280_pressure;Samples;Min_cycle;Max_cycle;Signal;HPM_P1;HPM_P2
2021/11/04 00:01:19;0.00;0.00;0.62;0.00;0.00;0.62;2.17;0.90;;;25.00;29.20;;;;;;2265600;61;20841;-59
2021/11/04 00:04:05;0.00;0.00;0.62;0.00;0.00;0.62;1.60;1.10;;;25.00;29.20;;;;;;2265762;61;20472;-59
2021/11/04 00:06:52;0.00;0.00;0.62;0.00;0.00;0.62;1.83;1.00;;;25.00;29.20;;;;;;2265273;61;20395;-59
2021/11/04 00:09:37;0.00;0.00;0.62;0.00;0.00;0.62;1.60;1.00;;;25.00;29.20;;;;;;2265934;61;20392;-59
2021/11/04 00:12:22;0.00;0.00;0.62;0.00;0.00;0.62;1.60;1.10;;;25.00;29.20;;;;;;2265371;61;20384;-59
2021/11/04 00:15:07;0.00;0.00;0.62;0.00;0.00;0.62;1.40;1.00;;;25.00;29.10;;;;;;2265250;61;20577;-60
2021/11/04 00:17:54;0.00;0.00;0.62;0.00;0.00;0.62;1.50;1.00;;;25.00;29.10;;;;;;2265580;61;20527;-59
2021/11/04 00:20:40;0.00;0.00;0.62;0.00;0.00;0.62;1.90;1.20;;;25.00;29.10;;;;;;2265235;61;20377;-60
2021/11/04 00:23:25;0.00;0.00;0.62;0.00;0.00;0.62;1.50;1.03;;;25.00;29.20;;;;;;2265510;61;20369;-60
2021/11/04 00:26:10;0.00;0.00;0.62;0.00;0.00;0.62;1.50;1.13;;;25.00;29.10;;;;;;2265593;61;20398;-59
2021/11/04 00:28:56;0.00;0.00;0.62;0.00;0.00;0.62;1.50;1.00;;;25.00;29.10;;;;;;2264838;61;20358;-59
2021/11/04 00:31:41;0.00;0.00;0.62;0.00;0.00;0.62;1.70;0.90;;;25.00;29.20;;;;;;2265803;61;20416;-59
2021/11/04 00:34:26;0.00;0.00;0.62;0.00;0.00;0.62;1.63;1.07;;;25.00;29.10;;;;;;2264574;61;20373;-59
2021/11/04 00:37:11;0.00;0.00;0.62;0.00;0.00;0.62;1.50;1.00;;;25.00;29.10;;;;;;2264692;61;20392;-60
2021/11/04 00:39:56;0.00;0.00;0.62;0.00;0.00;0.62;1.60;1.10;;;25.00;29.20;;;;;;2261254;61;20367;-59
2021/11/04 00:42:41;0.00;0.00;0.62;0.00;0.00;0.62;1.43;1.00;;;25.00;29.20;;;;;;2259495;61;20591;-59
2021/11/04 00:45:26;0.00;0.00;0.62;0.00;0.00;0.62;1.60;1.03;;;25.00;29.20;;;;;;2257471;61;20402;-60
2021/11/04 00:48:11;0.00;0.00;0.62;0.00;0.00;0.62;1.50;0.93;;;25.00;29.20;;;;;;2261734;61;20465;-62
2021/11/04 00:50:55;0.00;0.00;0.62;0.00;0.00;0.62;1.43;1.00;;;25.00;29.20;;;;;;2260838;61;20425;-58
2021/11/04 00:53:41;0.00;0.00;0.62;0.00;0.00;0.62;2.17;1.30;;;25.00;29.20;;;;;;2261976;61;20356;-59
2021/11/04 00:56:26;0.00;0.00;0.62;0.00;0.00;0.62;1.40;0.87;;;24.90;29.10;;;;;;2258261;61;20371;-59
2021/11/04 00:59:10;0.00;0.00;0.62;0.00;0.00;0.62;1.57;1.07;;;24.90;29.20;;;;;;2257229;61;20390;-59
2021/11/04 01:01:55;0.00;0.00;0.62;0.00;0.00;0.62;1.50;1.00;;;24.90;29.70;;;;;;2257879;61;20777;-59
2021/11/04 01:04:40;0.00;0.00;0.62;0.00;0.00;0.62;2.73;1.50;;;24.90;29.20;;;;;;2257523;61;20362;-59
2021/11/04 01:07:24;0.00;0.00;0.62;0.00;0.00;0.62;2.70;1.60;;;24.90;29.10;;;;;;2257355;61;20398;-58
2021/11/04 01:10:11;0.00;0.00;0.62;0.00;0.00;0.62;2.00;1.47;;;24.90;29.10;;;;;;2257743;61;20362;-59
2021/11/04 01:12:55;0.00;0.00;0.62;0.00;0.00;0.62;2.37;1.87;;;24.90;29.10;;;;;;2259913;61;20378;-57
2021/11/04 01:15:40;0.00;0.00;0.62;0.00;0.00;0.62;2.37;1.73;;;24.90;29.00;;;;;;2261910;61;20432;-59
2021/11/04 01:18:25;0.00;0.00;0.62;0.00;0.00;0.62;2.30;1.70;;;24.90;29.00;;;;;;2261607;61;20378;-59
2021/11/04 01:21:11;0.00;0.00;0.62;0.00;0.00;0.62;2.20;2.00;;;24.90;29.00;;;;;;2261066;61;20385;-59
2021/11/04 01:23:56;0.00;0.00;0.62;0.00;0.00;0.62;2.73;2.07;;;24.90;28.90;;;;;;2261873;61;20365;-58
2021/11/04 01:26:42;0.00;0.00;0.62;0.00;0.00;0.62;3.37;2.00;;;24.90;28.90;;;;;;2261507;61;20377;-58
2021/11/04 01:29:26;0.00;0.00;0.62;0.00;0.00;0.62;2.97;1.70;;;24.90;28.90;;;;;;2261250;61;20365;-58
2021/11/04 01:32:11;0.00;0.00;0.62;0.00;0.00;0.62;5.20;2.10;;;24.90;28.90;;;;;;2261809;61;20640;-58
2021/11/04 01:34:55;0.00;0.00;0.62;0.00;0.00;0.62;3.03;2.40;;;24.80;28.80;;;;;;2261344;61;20412;-61
2021/11/04 01:37:40;0.00;0.00;0.62;0.00;0.00;0.62;2.50;2.30;;;24.80;28.80;;;;;;2261842;61;20421;-59
2021/11/04 01:40:25;0.00;0.00;0.62;0.00;0.00;0.62;2.40;2.20;;;24.80;28.80;;;;;;2261678;61;20772;-59
2021/11/04 01:43:11;0.00;0.00;0.62;0.00;0.00;0.62;3.47;2.43;;;24.80;28.80;;;;;;2261780;61;20485;-59
2021/11/04 01:45:56;0.00;0.00;0.62;0.00;0.00;0.62;2.20;2.00;;;24.80;28.80;;;;;;2261876;61;20454;-57
2021/11/04 01:48:40;0.00;0.00;0.62;0.00;0.00;0.62;2.63;2.20;;;24.70;28.70;;;;;;2258312;61;20342;-58
2021/11/04 01:51:25;0.00;0.00;0.62;0.00;0.00;0.62;2.93;2.40;;;24.70;28.70;;;;;;2257771;61;20686;-58
2021/11/04 01:54:10;0.00;0.00;0.62;0.00;0.00;0.62;3.57;2.53;;;24.70;28.70;;;;;;2258400;61;20366;-58
2021/11/04 01:56:56;0.00;0.00;0.62;0.00;0.00;0.62;3.17;2.87;;;24.70;28.60;;;;;;2258328;61;20351;-58
2021/11/04 01:59:41;0.00;0.00;0.62;0.00;0.00;0.62;2.73;2.30;;;24.70;28.60;;;;;;2257775;61;20416;-58
2021/11/04 02:02:31;0.00;0.00;0.62;0.00;0.00;0.62;2.93;2.70;;;24.60;28.60;;;;;;2258611;61;20589;-58
2021/11/04 02:05:24;0.00;0.00;0.62;0.00;0.00;0.62;3.20;2.90;;;24.60;28.60;;;;;;2257700;61;20359;-58
2021/11/04 02:08:20;0.00;0.00;0.62;0.00;0.00;0.62;3.20;2.90;;;24.60;28.60;;;;;;2258010;61;20580;-58
2021/11/04 02:11:13;0.00;0.00;0.62;0.00;0.00;0.62;3.10;2.80;;;24.60;28.60;;;;;;2258136;61;20582;-59
2021/11/04 02:14:01;0.00;0.00;0.62;0.00;0.00;0.62;3.03;2.73;;;24.60;29.20;;;;;;2257420;61;20405;-59
2021/11/04 02:16:49;0.00;0.00;0.62;0.00;0.00;0.62;3.20;2.60;;;24.50;28.50;;;;;;2258395;61;20398;-58
2021/11/04 02:19:41;0.00;0.00;0.62;0.00;0.00;0.62;3.07;2.57;;;24.50;28.60;;;;;;2257568;61;20474;-59
2021/11/04 02:22:42;0.00;0.00;0.62;0.00;0.00;0.62;2.90;2.60;;;24.50;28.50;;;;;;2258153;61;20751;-57
2021/11/04 02:25:31;0.00;0.00;0.62;0.00;0.00;0.62;3.40;3.10;;;24.50;28.60;;;;;;2258238;61;20638;-58
2021/11/04 02:28:19;0.00;0.00;0.62;0.00;0.00;0.62;3.37;2.80;;;24.50;28.60;;;;;;2257724;61;20347;-58
2021/11/04 02:31:07;0.00;0.00;0.62;0.00;0.00;0.62;4.53;2.87;;;24.40;28.50;;;;;;2259506;61;20390;-58
2021/11/04 02:33:52;0.00;0.00;0.62;0.00;0.00;0.62;3.40;3.10;;;24.50;28.60;;;;;;2262171;61;20578;-58
2021/11/04 02:36:39;0.00;0.00;0.62;0.00;0.00;0.62;4.30;3.07;;;24.40;28.50;;;;;;2261749;61;20481;-58
2021/11/04 02:39:26;0.00;0.00;0.62;0.00;0.00;0.62;3.13;2.40;;;24.40;28.50;;;;;;2262300;61;20726;-58
2021/11/04 02:42:13;0.00;0.00;0.62;0.00;0.00;0.62;2.83;2.53;;;24.40;28.50;;;;;;2261449;61;20382;-58
2021/11/04 02:44:58;0.00;0.00;0.62;0.00;0.00;0.62;2.80;2.50;;;24.40;28.50;;;;;;2262306;61;20354;-56
2021/11/04 02:47:42;0.00;0.00;0.62;0.00;0.00;0.62;3.80;2.90;;;24.30;28.40;;;;;;2262098;61;20366;-59
2021/11/04 02:50:27;0.00;0.00;0.62;0.00;0.00;0.62;3.43;2.70;;;24.30;28.40;;;;;;2260923;61;20370;-58
2021/11/04 02:53:15;0.00;0.00;0.62;0.00;0.00;0.62;2.83;2.47;;;24.30;28.40;;;;;;2258117;61;20406;-58
2021/11/04 02:56:00;0.00;0.00;0.62;0.00;0.00;0.62;2.97;2.20;;;24.30;28.40;;;;;;2258009;61;20398;-57
2021/11/04 02:58:46;0.00;0.00;0.62;0.00;0.00;0.62;3.40;2.70;;;24.30;28.40;;;;;;2257663;61;20386;-58
2021/11/04 03:01:30;0.00;0.00;0.62;0.00;0.00;0.62;2.53;2.27;;;24.30;28.40;;;;;;2258084;61;20503;-58
2021/11/04 03:04:17;0.00;0.00;0.62;0.00;0.00;0.62;3.40;2.73;;;24.20;28.30;;;;;;2257413;61;20383;-57
2021/11/04 03:07:03;0.00;0.00;0.62;0.00;0.00;0.62;3.17;2.67;;;24.20;28.30;;;;;;2258253;61;20391;-59
2021/11/04 03:09:47;0.00;0.00;0.62;0.00;0.00;0.62;3.50;2.80;;;24.20;28.30;;;;;;2257925;61;20362;-58
2021/11/04 03:12:32;0.00;0.00;0.62;0.00;0.00;0.62;2.67;2.47;;;24.20;28.40;;;;;;2257563;61;20378;-58
2021/11/04 03:15:19;0.00;0.00;0.62;0.00;0.00;0.62;4.20;3.07;;;24.20;28.30;;;;;;2258192;61;20359;-58
2021/11/04 03:18:05;0.00;0.00;0.62;0.00;0.00;0.62;3.10;2.60;;;24.20;28.30;;;;;;2257887;61;20750;-57
2021/11/04 03:20:52;0.00;0.00;0.62;0.00;0.00;0.62;3.53;3.23;;;24.20;28.30;;;;;;2257453;61;20474;-58
2021/11/04 03:23:36;0.00;0.00;0.62;0.00;0.00;0.62;3.47;3.07;;;24.20;28.40;;;;;;2258222;61;20362;-59
2021/11/04 03:26:25;0.00;0.00;0.62;0.00;0.00;0.62;4.30;3.13;;;24.10;28.30;;;;;;2256835;61;20394;-59
2021/11/04 03:29:11;0.00;0.00;0.62;0.00;0.00;0.62;3.30;3.00;;;24.10;28.30;;;;;;2258193;61;20367;-58
2021/11/04 03:32:00;0.00;0.00;0.62;0.00;0.00;0.62;4.03;3.63;;;24.10;28.30;;;;;;2258152;61;20773;-58
2021/11/04 03:34:45;0.00;0.00;0.62;0.00;0.00;0.62;3.50;3.20;;;24.10;28.30;;;;;;2257458;61;20363;-58
2021/11/04 03:37:31;0.00;0.00;0.62;0.00;0.00;0.62;3.20;2.80;;;24.10;28.30;;;;;;2258163;61;20383;-59
2021/11/04 03:40:16;0.00;0.00;0.62;0.00;0.00;0.62;3.20;2.60;;;24.10;28.30;;;;;;2257569;61;20371;-58
2021/11/04 03:43:02;0.00;0.00;0.62;0.00;0.00;0.62;3.03;2.73;;;24.00;28.30;;;;;;2257648;61;20366;-58
2021/11/04 03:45:46;0.00;0.00;0.62;0.00;0.00;0.62;3.30;3.00;;;24.10;28.30;;;;;;2258167;61;20390;-59
2021/11/04 03:48:35;0.00;0.00;0.62;0.00;0.00;0.62;4.80;3.50;;;24.00;28.30;;;;;;2257236;61;20358;-59
2021/11/04 03:51:21;0.00;0.00;0.62;0.00;0.00;0.62;3.23;2.93;;;24.00;28.30;;;;;;2257864;61;20398;-57
2021/11/04 03:54:05;0.00;0.00;0.62;0.00;0.00;0.62;3.70;3.30;;;24.00;28.30;;;;;;2258019;61;20474;-58
2021/11/04 03:56:51;0.00;0.00;0.62;0.00;0.00;0.62;3.60;3.20;;;24.00;28.30;;;;;;2257588;61;20367;-56
2021/11/04 03:59:36;0.00;0.00;0.62;0.00;0.00;0.62;3.43;3.13;;;24.00;28.30;;;;;;2257851;61;20722;-59
2021/11/04 04:02:22;0.00;0.00;0.62;0.00;0.00;0.62;3.40;3.10;;;24.00;28.30;;;;;;2257762;61;20782;-58
2021/11/04 04:05:08;0.00;0.00;0.62;0.00;0.00;0.62;3.57;3.27;;;23.90;28.20;;;;;;2257614;61;20681;-59
2021/11/04 04:07:53;0.00;0.00;0.62;0.00;0.00;0.62;3.40;3.10;;;23.90;28.30;;;;;;2258027;61;20586;-58
2021/11/04 04:10:38;0.00;0.00;0.62;0.00;0.00;0.62;4.33;3.93;;;23.90;28.30;;;;;;2257120;61;20421;-58
2021/11/04 04:13:23;0.00;0.00;0.62;0.00;0.00;0.62;4.00;3.37;;;23.90;28.30;;;;;;2258089;61;20355;-58
2021/11/04 04:16:07;0.00;0.00;0.62;0.00;0.00;0.62;3.27;2.97;;;23.90;28.30;;;;;;2257968;61;20431;-58
2021/11/04 04:18:53;0.00;0.00;0.62;0.00;0.00;0.62;5.03;3.60;;;23.90;28.20;;;;;;2257396;61;20610;-59
2021/11/04 04:21:39;0.00;0.00;0.62;0.00;0.00;0.62;3.50;3.20;;;23.90;28.30;;;;;;2257753;61;20390;-58
2021/11/04 04:24:23;0.00;0.00;0.62;0.00;0.00;0.62;3.93;3.50;;;23.80;28.20;;;;;;2257758;61;20479;-58
2021/11/04 04:27:08;0.00;0.00;0.62;0.00;0.00;0.62;3.77;3.37;;;23.80;28.20;;;;;;2257055;61;20383;-58
2021/11/04 04:29:53;0.00;0.00;0.62;0.00;0.00;0.62;3.77;3.20;;;23.80;28.20;;;;;;2257786;61;20362;-58
2021/11/04 04:32:38;0.00;0.00;0.62;0.00;0.00;0.62;3.63;3.33;;;23.80;28.20;;;;;;2257804;61;20363;-59
2021/11/04 04:35:23;0.00;0.00;0.62;0.00;0.00;0.62;2.90;2.70;;;23.80;28.20;;;;;;2257837;61;20584;-58
2021/11/04 04:38:09;0.00;0.00;0.62;0.00;0.00;0.62;4.07;3.53;;;23.80;28.20;;;;;;2257608;61;20709;-58
2021/11/04 04:40:53;0.00;0.00;0.62;0.00;0.00;0.62;4.03;3.50;;;23.70;28.20;;;;;;2257003;61;20738;-58
2021/11/04 04:43:38;0.00;0.00;0.62;0.00;0.00;0.62;2.73;2.53;;;23.80;28.20;;;;;;2257878;61;20647;-58
2021/11/04 04:46:22;0.00;0.00;0.62;0.00;0.00;0.62;3.00;2.70;;;23.70;28.20;;;;;;2259072;61;20786;-58
2021/11/04 04:49:08;0.00;0.00;0.62;0.00;0.00;0.62;3.23;2.80;;;23.70;28.20;;;;;;2261365;61;20385;-56
2021/11/04 04:51:53;0.00;0.00;0.62;0.00;0.00;0.62;2.83;2.63;;;23.70;28.20;;;;;;2261754;61;20467;-59
2021/11/04 04:54:39;0.00;0.00;0.62;0.00;0.00;0.62;3.13;2.83;;;23.70;28.20;;;;;;2261667;61;20401;-58
2021/11/04 04:57:24;0.00;0.00;0.62;0.00;0.00;0.62;3.60;3.27;;;23.70;28.20;;;;;;2261634;61;20582;-59
2021/11/04 05:00:12;0.00;0.00;0.62;0.00;0.00;0.62;3.50;3.10;;;23.70;28.20;;;;;;2261613;61;20366;-58
2021/11/04 05:02:56;0.00;0.00;0.62;0.00;0.00;0.62;3.07;2.77;;;23.70;28.20;;;;;;2261184;61;20366;-59
2021/11/04 05:05:41;0.00;0.00;0.62;0.00;0.00;0.62;3.93;2.90;;;23.60;28.20;;;;;;2261824;61;20385;-59
2021/11/04 05:08:25;0.00;0.00;0.62;0.00;0.00;0.62;2.93;2.67;;;23.60;28.20;;;;;;2261593;61;20476;-59
2021/11/04 05:11:11;0.00;0.00;0.62;0.00;0.00;0.62;4.70;3.13;;;23.60;28.20;;;;;;2261042;61;20425;-59
2021/11/04 05:13:55;0.00;0.00;0.62;0.00;0.00;0.62;3.20;2.90;;;23.60;28.30;;;;;;2261811;61;20369;-57
2021/11/04 05:16:40;0.00;0.00;0.62;0.00;0.00;0.62;4.07;3.73;;;23.60;28.30;;;;;;2261473;61;20362;-57
2021/11/04 05:19:24;0.00;0.00;0.62;0.00;0.00;0.62;4.80;3.83;;;23.60;28.30;;;;;;2261158;61;20385;-56
2021/11/04 05:22:09;0.00;0.00;0.62;0.00;0.00;0.62;3.87;3.57;;;23.60;28.30;;;;;;2261392;61;20455;-55
2021/11/04 05:24:53;0.00;0.00;0.62;0.00;0.00;0.62;3.50;3.20;;;23.60;28.30;;;;;;2261032;61;20408;-56
2021/11/04 05:27:46;0.00;0.00;0.62;0.00;0.00;0.62;3.80;3.40;;;23.50;28.20;;;;;;2261924;61;20397;-58
2021/11/04 05:30:31;0.00;0.00;0.62;0.00;0.00;0.62;3.50;3.20;;;23.50;28.20;;;;;;2261474;61;20466;-59
2021/11/04 05:33:16;0.00;0.00;0.62;0.00;0.00;0.62;4.10;2.90;;;23.50;28.20;;;;;;2261305;61;20714;-56
2021/11/04 05:36:00;0.00;0.00;0.62;0.00;0.00;0.62;3.33;3.03;;;23.50;28.30;;;;;;2261727;61;20745;-58
2021/11/04 05:38:45;0.00;0.00;0.62;0.00;0.00;0.62;3.80;3.40;;;23.50;28.30;;;;;;2261428;61;20505;-55
2021/11/04 05:41:29;0.00;0.00;0.62;0.00;0.00;0.62;4.50;3.40;;;23.50;28.30;;;;;;2261148;61;20393;-58
2021/11/04 05:44:15;0.00;0.00;0.62;0.00;0.00;0.62;7.00;3.30;;;23.40;28.20;;;;;;2261757;61;20370;-57
2021/11/04 05:47:00;0.00;0.00;0.62;0.00;0.00;0.62;3.73;3.23;;;23.50;28.30;;;;;;2258488;61;20381;-57
2021/11/04 05:49:44;0.00;0.00;0.62;0.00;0.00;0.62;5.93;3.00;;;23.40;28.20;;;;;;2257528;61;20763;-57
2021/11/04 05:52:29;0.00;0.00;0.62;0.00;0.00;0.62;3.63;3.27;;;23.40;28.20;;;;;;2257554;61;20441;-56
2021/11/04 05:55:13;0.00;0.00;0.62;0.00;0.00;0.62;2.80;2.53;;;23.40;28.20;;;;;;2257130;61;20366;-56
2021/11/04 05:57:58;0.00;0.00;0.62;0.00;0.00;0.62;3.37;3.07;;;23.40;28.20;;;;;;2257665;61;20798;-55
2021/11/04 06:00:44;0.00;0.00;0.62;0.00;0.00;0.62;4.90;3.67;;;23.40;28.20;;;;;;2257208;61;20430;-56
2021/11/04 06:03:29;0.00;0.00;0.62;0.00;0.00;0.62;4.53;4.10;;;23.40;28.30;;;;;;2257194;61;20386;-64
2021/11/04 06:06:14;0.00;0.00;0.62;0.00;0.00;0.62;7.23;4.90;;;23.40;28.30;;;;;;2257579;61;20371;-61
2021/11/04 06:08:59;0.00;0.00;0.62;0.00;0.00;0.62;5.93;4.73;;;23.30;28.20;;;;;;2257036;61;20362;-60
2021/11/04 06:11:43;0.00;0.00;0.62;0.00;0.00;0.62;5.67;5.17;;;23.30;28.20;;;;;;2257646;61;20491;-60
2021/11/04 06:14:28;0.00;0.00;0.62;0.00;0.00;0.62;4.87;4.33;;;23.30;28.20;;;;;;2257171;61;20407;-59
2021/11/04 06:17:14;0.00;0.00;0.62;0.00;0.00;0.62;6.63;3.63;;;23.30;28.20;;;;;;2256945;61;20673;-59
2021/11/04 06:19:59;0.00;0.00;0.62;0.00;0.00;0.62;4.97;3.90;;;23.30;28.30;;;;;;2257420;61;20358;-60
2021/11/04 06:22:44;0.00;0.00;0.62;0.00;0.00;0.62;15.37;4.97;;;23.30;28.40;;;;;;2257475;61;20367;-60
2021/11/04 06:25:29;0.00;0.00;0.62;0.00;0.00;0.62;8.90;3.70;;;23.20;28.40;;;;;;2257025;61;20363;-61
2021/11/04 06:28:14;0.00;0.00;0.62;0.00;0.00;0.62;16.23;4.13;;;23.20;28.30;;;;;;2258044;61;20589;-60
2021/11/04 06:30:58;0.00;0.00;0.62;0.00;0.00;0.62;7.73;3.67;;;23.20;28.40;;;;;;2257907;61;20629;-60
2021/11/04 06:33:44;0.00;0.00;0.62;0.00;0.00;0.62;8.73;4.20;;;23.20;28.50;;;;;;2258260;61;20793;-61
2021/11/04 06:36:28;0.00;0.00;0.62;0.00;0.00;0.62;5.43;3.40;;;23.20;28.50;;;;;;2258257;61;20358;-61
2021/11/04 06:39:13;0.00;0.00;0.62;0.00;0.00;0.62;4.83;4.10;;;23.20;28.50;;;;;;2257446;61;20434;-61
2021/11/04 06:41:57;0.00;0.00;0.62;0.00;0.00;0.62;8.10;4.20;;;23.20;28.50;;;;;;2258314;61;20730;-61
2021/11/04 06:44:43;0.00;0.00;0.62;0.00;0.00;0.62;4.40;2.90;;;23.20;28.50;;;;;;2254446;61;20359;-62
2021/11/04 06:47:36;0.00;0.00;0.62;0.00;0.00;0.62;6.07;3.50;;;23.20;28.50;;;;;;2255678;61;20392;-62
2021/11/04 06:50:27;0.00;0.00;0.62;0.00;0.00;0.62;3.20;2.77;;;23.20;28.60;;;;;;2261641;61;20385;-61
2021/11/04 06:53:12;0.00;0.00;0.62;0.00;0.00;0.62;4.13;3.10;;;23.20;28.60;;;;;;2259568;61;20890;-60
2021/11/04 06:56:01;0.00;0.00;0.62;0.00;0.00;0.62;4.27;3.10;;;23.20;28.70;;;;;;2261315;61;20753;-58
2021/11/04 06:58:50;0.00;0.00;0.62;0.00;0.00;0.62;3.33;2.90;;;23.20;28.80;;;;;;2262061;61;20421;-62
2021/11/04 07:01:36;0.00;0.00;0.62;0.00;0.00;0.62;2.90;2.60;;;23.20;28.80;;;;;;2260912;61;20494;-59
2021/11/04 07:04:28;0.00;0.00;0.62;0.00;0.00;0.62;3.47;3.13;;;23.20;28.70;;;;;;2261338;61;20473;-59
2021/11/04 07:07:17;0.00;0.00;0.62;0.00;0.00;0.62;3.33;3.03;;;23.20;28.70;;;;;;2261496;61;20405;-60
2021/11/04 07:10:03;0.00;0.00;0.62;0.00;0.00;0.62;8.43;3.67;;;23.20;28.80;;;;;;2257553;61;20385;-58
2021/11/04 07:12:49;0.00;0.00;0.62;0.00;0.00;0.62;3.70;3.40;;;23.20;28.90;;;;;;2583499;45;20350;-63
2021/11/04 07:15:35;0.00;0.00;0.62;0.00;0.00;0.62;4.00;2.87;;;23.20;28.80;;;;;;2261056;61;20397;-63
2021/11/04 07:18:20;0.00;0.00;0.62;0.00;0.00;0.62;4.60;3.97;;;23.20;28.80;;;;;;2261643;61;20664;-61
2021/11/04 07:21:14;0.00;0.00;0.62;0.00;0.00;0.62;2.80;2.50;;;23.20;28.80;;;;;;2261321;61;20377;-63
2021/11/04 07:24:05;0.00;0.00;0.62;0.00;0.00;0.62;6.47;3.00;;;23.20;28.80;;;;;;2261474;61;20354;-62
2021/11/04 07:26:55;0.00;0.00;0.62;0.00;0.00;0.62;3.80;3.40;;;23.20;28.90;;;;;;2262006;61;20412;-61
2021/11/04 07:29:44;0.00;0.00;0.62;0.00;0.00;0.62;4.50;3.63;;;23.20;28.80;;;;;;2261356;61;20357;-62
2021/11/04 07:32:31;0.00;0.00;0.62;0.00;0.00;0.62;3.97;3.13;;;23.20;28.80;;;;;;2261526;61;20386;-62
2021/11/04 07:35:18;0.00;0.00;0.62;0.00;0.00;0.62;4.03;3.43;;;23.20;28.80;;;;;;2261922;61;20718;-62
2021/11/04 07:38:07;0.00;0.00;0.62;0.00;0.00;0.62;4.30;3.87;;;23.20;28.80;;;;;;2260659;61;20465;-62
2021/11/04 07:40:53;0.00;0.00;0.62;0.00;0.00;0.62;6.97;3.77;;;23.20;28.80;;;;;;2261391;61;20378;-64
2021/11/04 07:43:38;0.00;0.00;0.62;0.00;0.00;0.62;4.43;3.90;;;23.20;28.80;;;;;;2261944;61;20368;-63
2021/11/04 07:46:22;0.00;0.00;0.62;0.00;0.00;0.62;5.17;3.97;;;23.20;28.80;;;;;;2259883;61;20374;-63
2021/11/04 07:49:07;0.00;0.00;0.62;0.00;0.00;0.62;3.53;3.23;;;23.20;28.80;;;;;;2257972;61;20358;-63
2021/11/04 07:51:56;0.00;0.00;0.62;0.00;0.00;0.62;3.90;3.50;;;23.20;28.80;;;;;;2257683;61;20605;-63
2021/11/04 07:54:41;0.00;0.00;0.62;0.00;0.00;0.62;3.60;3.17;;;23.20;28.80;;;;;;2257396;61;20342;-64
2021/11/04 07:57:32;0.00;0.00;0.62;0.00;0.00;0.62;3.50;3.13;;;23.20;28.90;;;;;;2263972;58;20466;-61
2021/11/04 08:00:19;0.00;0.00;0.62;0.00;0.00;0.62;3.67;3.30;;;23.20;28.80;;;;;;2261050;61;20385;-63
2021/11/04 08:03:05;0.00;0.00;0.62;0.00;0.00;0.62;3.50;3.20;;;23.20;28.80;;;;;;2261784;61;20369;-62
2021/11/04 08:05:51;0.00;0.00;0.62;0.00;0.00;0.62;5.00;3.10;;;23.30;28.90;;;;;;2261684;61;20682;-62
2021/11/04 08:08:37;0.00;0.00;0.62;0.00;0.00;0.62;3.53;3.23;;;23.30;28.90;;;;;;2261315;61;20389;-63
2021/11/04 08:11:21;0.00;0.00;0.62;0.00;0.00;0.62;3.00;2.63;;;23.30;28.90;;;;;;2261775;61;20385;-63
2021/11/04 08:14:07;0.00;0.00;0.62;0.00;0.00;0.62;3.93;3.53;;;23.30;28.90;;;;;;2261672;61;20741;-63
2021/11/04 08:16:52;0.00;0.00;0.62;0.00;0.00;0.62;3.60;2.77;;;23.30;28.90;;;;;;2260883;61;20369;-63
2021/11/04 08:19:36;0.00;0.00;0.62;0.00;0.00;0.62;3.00;2.70;;;23.30;28.90;;;;;;2261801;61;20394;-62
2021/11/04 08:22:21;0.00;0.00;0.62;0.00;0.00;0.62;2.87;2.40;;;23.30;28.90;;;;;;2261067;61;20381;-61
2021/11/04 08:25:07;0.00;0.00;0.62;0.00;0.00;0.62;3.10;2.60;;;23.30;28.90;;;;;;2261604;61;20557;-63
2021/11/04 08:27:52;0.00;0.00;0.62;0.00;0.00;0.62;4.07;2.70;;;23.30;28.90;;;;;;2261912;61;20362;-60
2021/11/04 08:30:39;0.00;0.00;0.62;0.00;0.00;0.62;3.70;3.20;;;23.30;28.90;;;;;;2260975;61;20489;-62
2021/11/04 08:33:23;0.00;0.00;0.62;0.00;0.00;0.62;4.10;3.60;;;23.30;28.90;;;;;;2261703;61;20366;-59
2021/11/04 08:36:08;0.00;0.00;0.62;0.00;0.00;0.62;3.93;3.10;;;23.30;28.90;;;;;;2261584;61;20376;-59
2021/11/04 08:38:52;0.00;0.00;0.62;0.00;0.00;0.62;4.70;3.20;;;23.30;28.90;;;;;;2260684;61;20433;-62
2021/11/04 08:41:37;0.00;0.00;0.62;0.00;0.00;0.62;4.50;3.23;;;23.40;29.00;;;;;;2261489;61;20405;-61
2021/11/04 08:44:22;0.00;0.00;0.62;0.00;0.00;0.62;3.30;2.63;;;23.40;29.00;;;;;;2261167;61;20366;-61
2021/11/04 08:47:10;0.00;0.00;0.62;0.00;0.00;0.62;3.73;3.03;;;23.40;29.00;;;;;;2258222;61;20410;-62
2021/11/04 08:49:55;0.00;0.00;0.62;0.00;0.00;0.62;3.90;2.17;;;23.40;29.00;;;;;;2257604;61;20367;-61
2021/11/04 08:52:40;0.00;0.00;0.62;0.00;0.00;0.62;3.43;2.70;;;23.40;29.00;;;;;;2314768;58;20432;-63
2021/11/04 08:55:25;0.00;0.00;0.62;0.00;0.00;0.62;3.53;2.50;;;23.40;29.00;;;;;;2259828;61;20458;-61
2021/11/04 08:58:09;0.00;0.00;0.62;0.00;0.00;0.62;2.60;2.30;;;23.40;29.00;;;;;;2257745;61;20770;-62
2021/11/04 09:00:54;0.00;0.00;0.62;0.00;0.00;0.62;3.90;2.53;;;23.40;29.00;;;;;;2257640;61;20397;-59
2021/11/04 09:03:40;0.00;0.00;0.62;0.00;0.00;0.62;2.70;2.10;;;23.50;29.00;;;;;;2257440;61;20366;-64
2021/11/04 09:06:24;0.00;0.00;0.62;0.00;0.00;0.62;3.07;2.10;;;23.50;29.00;;;;;;2257363;61;20390;-59
2021/11/04 09:09:10;0.00;0.00;0.62;0.00;0.00;0.62;2.53;2.17;;;23.50;29.00;;;;;;2753785;45;20556;-63
2021/11/04 09:11:55;0.00;0.00;0.62;0.00;0.00;0.62;3.10;2.33;;;23.50;29.00;;;;;;2257779;61;20398;-64
2021/11/04 09:14:41;0.00;0.00;0.62;0.00;0.00;0.62;4.20;2.53;;;23.50;29.00;;;;;;2256224;61;20439;-61
2021/11/04 09:17:26;0.00;0.00;0.62;0.00;0.00;0.62;2.67;2.30;;;23.50;29.00;;;;;;2257452;61;20447;-61
2021/11/04 09:20:16;0.00;0.00;0.62;0.00;0.00;0.62;3.60;2.27;;;23.60;29.10;;;;;;2257295;61;20687;-64
2021/11/04 09:23:01;0.00;0.00;0.62;0.00;0.00;0.62;2.93;2.00;;;23.60;29.20;;;;;;2256848;61;20784;-63
2021/11/04 09:25:46;0.00;0.00;0.62;0.00;0.00;0.62;2.47;2.23;;;23.60;29.10;;;;;;2256241;61;20826;-62
2021/11/04 09:28:31;0.00;0.00;0.62;0.00;0.00;0.62;3.37;2.27;;;23.60;29.10;;;;;;2257216;61;20406;-62
2021/11/04 09:31:16;0.00;0.00;0.62;0.00;0.00;0.62;2.43;2.17;;;23.60;29.20;;;;;;2257322;61;20434;-62
2021/11/04 09:34:01;0.00;0.00;0.62;0.00;0.00;0.62;3.27;1.90;;;23.60;29.10;;;;;;2257693;61;20366;-62
2021/11/04 09:36:47;0.00;0.00;0.62;0.00;0.00;0.62;2.30;2.00;;;23.60;29.10;;;;;;2256349;61;20719;-62
2021/11/04 09:39:32;0.00;0.00;0.62;0.00;0.00;0.62;2.03;1.73;;;23.70;29.20;;;;;;2256810;61;20402;-62
2021/11/04 09:42:19;0.00;0.00;0.62;0.00;0.00;0.62;2.23;2.00;;;23.70;29.20;;;;;;2257070;61;20967;-62
2021/11/04 09:45:06;0.00;0.00;0.62;0.00;0.00;0.62;2.93;2.00;;;23.70;29.20;;;;;;2256272;61;20359;-63
2021/11/04 09:47:50;0.00;0.00;0.62;0.00;0.00;0.62;2.10;1.73;;;23.70;29.20;;;;;;2261315;61;20381;-62
2021/11/04 09:50:35;0.00;0.00;0.62;0.00;0.00;0.62;2.37;1.90;;;23.70;29.20;;;;;;2260985;61;20432;-65
2021/11/04 09:53:21;0.00;0.00;0.62;0.00;0.00;0.62;2.10;1.53;;;23.70;29.20;;;;;;2261042;61;20594;-62
2021/11/04 09:56:06;0.00;0.00;0.62;0.00;0.00;0.62;2.30;1.70;;;23.80;29.30;;;;;;2261772;61;20361;-61
2021/11/04 09:58:51;0.00;0.00;0.62;0.00;0.00;0.62;2.10;1.80;;;23.80;29.30;;;;;;2260830;61;20777;-60
2021/11/04 10:01:43;0.00;0.00;0.62;0.00;0.00;0.62;4.80;1.67;;;23.80;29.30;;;;;;2260495;61;20401;-62
2021/11/04 10:04:36;0.00;0.00;0.62;0.00;0.00;0.62;1.87;1.60;;;23.80;29.30;;;;;;2261119;61;20366;-61
2021/11/04 10:07:21;0.00;0.00;0.62;0.00;0.00;0.62;4.93;1.97;;;23.90;29.30;;;;;;2261114;61;20365;-61
2021/11/04 10:10:13;0.00;0.00;0.62;0.00;0.00;0.62;5.60;2.03;;;23.90;29.30;;;;;;2258138;61;20377;-62
2021/11/04 10:13:01;0.00;0.00;0.62;0.00;0.00;0.62;2.30;1.63;;;23.80;29.30;;;;;;2257932;61;20490;-61
2021/11/04 10:15:54;0.00;0.00;0.62;0.00;0.00;0.62;2.00;1.70;;;23.90;29.30;;;;;;2257907;61;20394;-61
2021/11/04 10:18:41;0.00;0.00;0.62;0.00;0.00;0.62;2.10;1.70;;;23.90;29.30;;;;;;2258076;61;20395;-61
2021/11/04 10:21:29;0.00;0.00;0.62;0.00;0.00;0.62;2.10;1.57;;;23.90;29.30;;;;;;2256995;61;20378;-61
2021/11/04 10:24:20;0.00;0.00;0.62;0.00;0.00;0.62;2.10;1.73;;;23.90;29.30;;;;;;2258100;61;20717;-60
2021/11/04 10:27:27;0.00;0.00;0.62;0.00;0.00;0.62;2.13;1.93;;;23.90;29.30;;;;;;2257558;61;20374;-65
2021/11/04 10:30:36;0.00;0.00;0.62;0.00;0.00;0.62;2.00;1.67;;;23.90;29.30;;;;;;2257466;61;20621;-61
2021/11/04 10:33:28;0.00;0.00;0.62;0.00;0.00;0.62;2.70;1.97;;;23.90;29.30;;;;;;2258114;61;20366;-60
2021/11/04 10:36:16;0.00;0.00;0.62;0.00;0.00;0.62;2.53;1.73;;;24.00;29.40;;;;;;2257456;61;20367;-59
2021/11/04 10:39:03;0.00;0.00;0.62;0.00;0.00;0.62;3.70;2.53;;;24.00;29.40;;;;;;2258012;61;20602;-57
2021/11/04 10:41:48;0.00;0.00;0.62;0.00;0.00;0.62;4.00;1.90;;;24.00;29.40;;;;;;2257805;61;20386;-58
2021/11/04 10:44:35;0.00;0.00;0.62;0.00;0.00;0.62;3.90;1.50;;;24.00;29.40;;;;;;2257027;61;20359;-58
2021/11/04 10:47:22;0.00;0.00;0.62;0.00;0.00;0.62;3.40;1.90;;;24.00;29.40;;;;;;2260895;61;20745;-62
2021/11/04 10:50:08;0.00;0.00;0.62;0.00;0.00;0.62;2.80;1.47;;;24.00;29.90;;;;;;2261457;61;20370;-61
2021/11/04 10:53:04;0.00;0.00;0.62;0.00;0.00;0.62;2.93;2.13;;;24.00;29.40;;;;;;2261795;61;20424;-62
2021/11/04 10:55:55;0.00;0.00;0.62;0.00;0.00;0.62;2.23;1.90;;;24.00;29.40;;;;;;2262086;61;20358;-62